Time;durP1;ratioP1;P1;durP2;ratioP2;P2;SDS_P1;SDS_P2;PMS_P1;PMS_P2;Temp;Humidity;BMP_temperature;BMP_pressure;BME280_temperature;BME280_humidity;BME280_pressure;Samples;Min_cycle;Max_cycle;Signal;HPM_P1;HPM_P2
2022/12/16 00:00:18;;;;;;;43.55;18.42;;;-5.60;99.90;;;;;;5082933;28;20063;-57
2022/12/16 00:02:47;;;;;;;44.40;18.02;;;-5.60;99.90;;;;;;5083819;28;20036;-55
2022/12/16 00:05:14;;;;;;;41.17;17.17;;;-5.60;99.90;;;;;;5082569;28;20066;-57
2022/12/16 00:07:42;;;;;;;44.45;16.73;;;-5.70;99.90;;;;;;5088707;28;20049;-57
2022/12/16 00:10:10;;;;;;;51.63;18.67;;;-5.70;99.90;;;;;;5086968;28;20055;-57
2022/12/16 00:12:37;;;;;;;47.22;19.73;;;-5.70;99.90;;;;;;5086161;28;20040;-58
2022/12/16 00:15:05;;;;;;;40.65;19.05;;;-5.70;99.90;;;;;;5082900;28;20423;-57
2022/12/16 00:17:35;;;;;;;;;;;-5.70;99.90;;;;;;5081311;28;20040;-58
2022/12/16 00:20:04;;;;;;;46.05;18.90;;;-5.80;99.90;;;;;;5089615;28;19926;-56
2022/12/16 00:22:32;;;;;;;50.47;20.10;;;-5.80;99.90;;;;;;5088623;28;20048;-56
2022/12/16 00:25:00;;;;;;;43.88;18.58;;;-5.80;99.90;;;;;;5090055;28;20051;-58
2022/12/16 00:27:28;;;;;;;55.45;21.58;;;-5.80;99.90;;;;;;5086209;28;20037;-56
2022/12/16 00:29:55;;;;;;;48.47;20.50;;;-5.80;99.90;;;;;;5085964;28;20043;-58
2022/12/16 00:32:23;;;;;;;51.97;21.30;;;-5.80;99.90;;;;;;5087705;28;20611;-58
2022/12/16 00:34:51;;;;;;;55.25;20.42;;;-5.80;99.90;;;;;;5074840;28;20052;-57
2022/12/16 00:37:19;;;;;;;52.28;19.77;;;-5.80;99.90;;;;;;5090097;28;20051;-58
2022/12/16 00:39:46;;;;;;;48.63;20.50;;;-5.80;99.90;;;;;;5085905;28;20036;-58
2022/12/16 00:42:14;;;;;;;48.35;17.77;;;-5.80;99.90;;;;;;5085714;28;20055;-58
2022/12/16 00:44:43;;;;;;;45.92;18.20;;;-6.80;99.90;;;;;;5088213;28;20625;-58
2022/12/16 00:47:11;;;;;;;50.08;17.92;;;-5.90;99.90;;;;;;5073360;28;20047;-58
2022/12/16 00:49:38;;;;;;;36.42;16.33;;;-5.90;99.90;;;;;;5088734;28;20395;-58
2022/12/16 00:52:06;;;;;;;44.15;18.40;;;-5.90;99.90;;;;;;5088254;28;20067;-58
2022/12/16 00:54:34;;;;;;;46.63;18.60;;;-5.90;99.90;;;;;;5089308;28;20051;-58
2022/12/16 00:57:01;;;;;;;51.95;18.08;;;-5.90;99.90;;;;;;5090307;28;20044;-59
2022/12/16 00:59:29;;;;;;;60.22;21.40;;;-5.90;99.90;;;;;;5086819;28;20506;-58
2022/12/16 01:02:00;;;;;;;50.38;20.05;;;-5.90;99.90;;;;;;5079933;28;20047;-58
2022/12/16 01:04:30;;;;;;;46.53;20.95;;;-5.90;99.90;;;;;;5085182;28;20044;-59
2022/12/16 01:06:58;;;;;;;;;;;-5.90;99.90;;;;;;5086271;28;20052;-58
2022/12/16 01:09:28;;;;;;;45.05;19.95;;;-6.00;99.90;;;;;;5081149;28;19931;-58
2022/12/16 01:11:56;;;;;;;42.03;19.88;;;-5.90;99.90;;;;;;5089125;28;20062;-58
2022/12/16 01:14:23;;;;;;;55.15;21.35;;;-5.90;99.90;;;;;;5086583;28;20048;-59
2022/12/16 01:16:51;;;;;;;41.72;17.77;;;-5.90;99.90;;;;;;5085223;28;20036;-58
2022/12/16 01:19:21;;;;;;;57.05;19.63;;;-6.00;99.90;;;;;;5087395;28;20040;-58
2022/12/16 01:21:49;;;;;;;42.17;18.40;;;-6.00;99.90;;;;;;5089626;28;20048;-59
2022/12/16 01:24:16;;;;;;;45.45;17.50;;;-6.00;99.90;;;;;;5089315;28;20048;-58
2022/12/16 01:26:44;;;;;;;40.38;18.35;;;-6.00;99.90;;;;;;5087303;28;20059;-61
2022/12/16 01:29:12;;;;;;;41.72;18.90;;;-6.00;99.90;;;;;;5088248;28;20059;-58
2022/12/16 01:31:40;;;;;;;43.72;19.00;;;-6.00;99.90;;;;;;5078988;28;20060;-60
2022/12/16 01:34:08;;;;;;;43.40;17.70;;;-6.10;99.90;;;;;;5077788;28;20059;-59
2022/12/16 01:36:36;;;;;;;57.50;18.20;;;-6.10;99.90;;;;;;5089098;28;20059;-58
2022/12/16 01:39:04;;;;;;;43.55;17.60;;;-6.20;99.90;;;;;;5088117;28;20043;-59
2022/12/16 01:41:31;;;;;;;50.47;19.75;;;-6.20;99.90;;;;;;5087681;28;20499;-57
2022/12/16 01:44:13;;;;;;;52.33;20.10;;;-6.20;99.90;;;;;;5085223;28;20044;-58
2022/12/16 01:46:50;;;;;;;52.35;20.40;;;-6.20;99.90;;;;;;5079839;28;20353;-59
2022/12/16 01:49:41;;;;;;;45.33;20.23;;;-6.20;99.90;;;;;;5083637;28;20395;-57
2022/12/16 01:52:14;;;;;;;51.13;21.52;;;-6.20;99.90;;;;;;5051151;28;20471;-60
2022/12/16 01:54:51;;;;;;;51.75;21.40;;;-6.20;99.90;;;;;;5084926;28;20048;-60
2022/12/16 01:57:28;;;;;;;48.95;20.67;;;-6.10;99.90;;;;;;5089048;28;20487;-59
2022/12/16 01:59:56;;;;;;;59.40;20.92;;;-6.10;99.90;;;;;;5086007;28;20047;-60
2022/12/16 02:02:25;;;;;;;43.47;17.80;;;-6.10;99.90;;;;;;5084344;28;20036;-58
2022/12/16 02:07:40;;;;;;;53.58;19.38;;;-6.20;99.90;;;;;;5070622;28;19925;-59
2022/12/16 02:10:10;;;;;;;50.35;17.20;;;-6.20;99.90;;;;;;5086406;28;20048;-59
2022/12/16 02:12:47;;;;;;;48.95;20.45;;;-6.20;99.90;;;;;;5068230;28;20049;-61
2022/12/16 02:15:36;;;;;;;49.58;19.92;;;-6.30;99.90;;;;;;5084608;28;20398;-59
2022/12/16 02:18:07;;;;;;;;;;;-6.30;99.90;;;;;;5073898;28;20479;-60
2022/12/16 02:21:12;;;;;;;42.03;17.45;;;-6.30;99.90;;;;;;5087473;28;19950;-60
2022/12/16 02:23:49;;;;;;;43.58;19.40;;;-6.30;99.90;;;;;;5085977;28;20405;-60
2022/12/16 02:26:52;;;;;;;45.47;17.63;;;-6.30;99.90;;;;;;5087347;28;20063;-59
2022/12/16 02:29:57;;;;;;;37.08;16.17;;;-6.30;99.90;;;;;;5085975;28;20497;-61
2022/12/16 02:32:57;;;;;;;39.28;16.50;;;-6.40;99.90;;;;;;5070432;28;20660;-58
2022/12/16 02:36:07;;;;;;;46.60;17.30;;;-6.40;99.90;;;;;;5076980;28;20036;-59
2022/12/16 02:38:38;;;;;;;39.40;17.63;;;-6.40;99.90;;;;;;5083561;28;20056;-59
2022/12/16 02:41:18;;;;;;;47.90;18.88;;;-6.50;99.90;;;;;;5087831;28;20047;-61
2022/12/16 02:43:48;;;;;;;40.80;17.23;;;-6.50;99.90;;;;;;5091767;28;20051;-60
2022/12/16 02:46:18;;;;;;;40.00;18.33;;;-6.50;99.90;;;;;;5089746;28;20360;-60
2022/12/16 02:48:46;;;;;;;53.88;17.95;;;-6.50;99.90;;;;;;5091378;28;20050;-60
2022/12/16 02:51:16;;;;;;;33.80;16.90;;;-6.50;99.90;;;;;;5088184;28;20038;-61
2022/12/16 02:53:45;;;;;;;39.30;16.23;;;-6.50;99.90;;;;;;5090331;28;20040;-62
2022/12/16 02:56:37;;;;;;;49.10;18.90;;;-6.50;99.90;;;;;;5090144;28;20044;-59
2022/12/16 02:59:30;;;;;;;40.88;17.02;;;-6.50;99.90;;;;;;5089800;28;20047;-59
2022/12/16 03:02:01;;;;;;;40.13;17.85;;;-6.60;99.90;;;;;;5086811;28;20044;-60
2022/12/16 03:04:39;;;;;;;40.10;17.58;;;-6.60;99.90;;;;;;5088322;28;20036;-61
2022/12/16 03:07:12;;;;;;;45.60;17.67;;;-6.60;99.90;;;;;;5089317;28;20040;-61
2022/12/16 03:09:42;;;;;;;48.90;17.95;;;-6.60;99.90;;;;;;5090132;28;20063;-60
2022/12/16 03:12:15;;;;;;;43.05;18.83;;;-6.60;99.90;;;;;;5087831;28;20531;-61
2022/12/16 03:14:45;;;;;;;40.78;18.23;;;-6.70;99.90;;;;;;5090174;28;20055;-62
2022/12/16 03:17:15;;;;;;;42.15;16.88;;;-6.70;99.90;;;;;;5091098;28;20052;-60
2022/12/16 03:19:53;;;;;;;46.70;18.35;;;-6.70;99.90;;;;;;5091200;28;20040;-60
2022/12/16 03:22:26;;;;;;;50.70;17.77;;;-6.70;99.90;;;;;;5088537;28;20052;-60
2022/12/16 03:24:54;;;;;;;36.95;17.58;;;-6.70;99.90;;;;;;5089799;28;20048;-62
2022/12/16 03:27:33;;;;;;;50.55;16.55;;;-6.70;99.90;;;;;;5077960;28;20055;-61
2022/12/16 03:30:06;;;;;;;43.55;17.38;;;-6.70;99.90;;;;;;5083857;28;20530;-61
2022/12/16 03:33:14;;;;;;;30.63;15.43;;;-6.70;99.90;;;;;;5089214;28;20047;-62
2022/12/16 03:35:49;;;;;;;38.03;17.08;;;-6.70;99.90;;;;;;5082809;28;20514;-61
2022/12/16 03:38:20;;;;;;;41.95;16.77;;;-6.70;99.90;;;;;;5090098;28;20052;-61
2022/12/16 03:40:49;;;;;;;37.00;16.08;;;-6.70;99.90;;;;;;5087470;28;20048;-62
2022/12/16 03:43:17;;;;;;;51.33;17.55;;;-6.70;99.90;;;;;;5088843;28;20495;-59
2022/12/16 03:45:50;;;;;;;46.20;17.73;;;-6.70;99.90;;;;;;5090427;28;20055;-62
2022/12/16 03:48:22;;;;;;;50.42;19.80;;;-6.70;99.90;;;;;;5091059;28;20044;-60
2022/12/16 03:50:50;;;;;;;47.72;17.48;;;-6.70;99.90;;;;;;5091459;28;20048;-61
2022/12/16 03:53:18;;;;;;;39.65;17.95;;;-6.70;99.90;;;;;;5092715;28;20054;-60
2022/12/16 03:55:45;;;;;;;44.72;18.58;;;-6.70;99.90;;;;;;5093514;28;20037;-61
2022/12/16 03:58:13;;;;;;;38.92;16.27;;;-6.80;99.90;;;;;;5094783;28;20039;-62
2022/12/16 04:00:41;;;;;;;41.83;17.08;;;-6.80;99.90;;;;;;5093689;28;20044;-63
2022/12/16 04:03:08;;;;;;;37.53;17.33;;;-6.80;99.90;;;;;;5092077;28;20078;-60
2022/12/16 04:05:37;;;;;;;41.80;16.23;;;-6.80;99.90;;;;;;5094572;28;20074;-60
2022/12/16 04:08:05;;;;;;;45.97;16.92;;;-6.80;99.90;;;;;;5094732;28;20036;-58
2022/12/16 04:24:29;;;;;;;32.58;16.10;;;-7.00;99.90;;;;;;5094297;28;20044;-60
2022/12/16 04:27:24;;;;;;;38.45;15.20;;;-7.00;99.90;;;;;;5093935;28;20499;-59
